Monday, November 19, 2018, 7:33 AM GMT
Back to Local

CWTN, Cap Tourmente

Location: , , Canada Lat: 47.067
Local Time: 7:33 AM GMT ( 7:33 GMT) Lon: -70.8
Time Zone: GMT Elev: 19 ft

Show me the last for .
Show Coded

Time T Td Feel RH Dir Speed Gust Alt SLP Vis Weather Sky Remarks
2018-11-19 07:00 14 10 - 83 300° 2 - - 30.18 0 None
2018-11-19 06:00 17 10 - 75 290° 2 - - 30.19 0 None
2018-11-19 05:00 15 11 - 86 300° 1 - - 30.21 0 None
2018-11-19 04:00 11 7 - 83 330° 2 - - 30.23 0 None
2018-11-19 03:00 10 7 - 84 340° 1 - - 30.24 0 None
2018-11-19 02:00 10 6 - 82 360° 1 - - 30.26 0 None
2018-11-19 01:00 14 7 - 74 350° 1 - - 30.26 0 None
2018-11-19 00:00 17 8 11 67 280° 3 - - 30.27 0 None
2018-11-18 23:00 15 5 7 64 230° 5 - - 30.28 0 None
2018-11-18 22:00 16 5 9 60 260° 5 - - 30.28 0 None
2018-11-18 21:00 20 5 10 52 250° 8 - - 30.28 0 Peak wind: 19 mph (17 kts) from 240° at 06 min
2018-11-18 20:00 22 6 8 50 240° 9 17 - 30.28 0 None
2018-11-18 19:00 23 7 9 48 240° 9 17 - 30.29 0 None
2018-11-18 18:00 23 6 14 47 230° 8 - - 30.29 0 None
2018-11-18 17:00 22 5 13 47 220° 8 - - 30.30 0 None
2018-11-18 16:00 22 6 14 48 230° 7 - - 30.33 0 None
2018-11-18 15:00 21 6 13 50 240° 7 - - 30.34 0 None
2018-11-18 14:00 20 4 12 48 230° 6 - - 30.34 0 None
2018-11-18 13:00 19 7 12 59 270° 5 - - 30.33 0 None
2018-11-18 12:00 12 8 - 83 300° 2 - - 30.30 0 None
2018-11-18 11:00 17 9 12 70 320° 3 - - 30.27 0 None
2018-11-18 10:00 14 10 - 82 340° 2 - - 30.25 0 None
2018-11-18 09:00 12 9 - 86 290° 2 - - 30.24 0 None
2018-11-18 08:00 15 10 - 83 300° 2 - - 30.22 0 None

Support USWX by starting your Amazon purchase here.